Time;durP1;ratioP1;P1;durP2;ratioP2;P2;SDS_P1;SDS_P2;PMS_P1;PMS_P2;Temp;Humidity;BMP_temperature;BMP_pressure;BME280_temperature;BME280_humidity;BME280_pressure;Samples;Min_cycle;Max_cycle;Signal;HPM_P1;HPM_P2
2023/10/19 00:00:20;;;;;;;7.07;6.18;;;;;;;;;;5094080;28;20448;-67
2023/10/19 00:02:54;;;;;;;5.82;5.32;;;;;;;;;;5096226;28;20051;-67
2023/10/19 00:05:26;;;;;;;5.78;5.25;;;;;;;;;;5097418;28;20048;-67
2023/10/19 00:07:57;;;;;;;8.15;5.60;;;;;;;;;;5094457;28;20052;-67
2023/10/19 00:10:29;;;;;;;5.85;5.35;;;;;;;;;;5096560;28;20607;-67
2023/10/19 00:12:59;;;;;;;6.25;5.75;;;;;;;;;;5093222;28;20076;-67
2023/10/19 00:15:31;;;;;;;6.30;5.80;;;;;;;;;;5099781;28;20156;-67
2023/10/19 00:18:08;;;;;;;6.90;6.22;;;;;;;;;;5096717;28;20039;-66
2023/10/19 00:20:49;;;;;;;5.43;4.97;;;;;;;;;;5094913;28;20492;-67
2023/10/19 00:23:18;;;;;;;6.35;5.75;;;;;;;;;;5095161;28;20138;-67
2023/10/19 00:25:50;;;;;;;6.10;5.50;;;;;;;;;;5094203;28;20075;-67
2023/10/19 00:28:19;;;;;;;5.88;5.43;;;;;;;;;;5097831;28;20050;-67
2023/10/19 00:30:49;;;;;;;5.78;5.30;;;;;;;;;;5098217;28;20092;-67
2023/10/19 00:33:20;;;;;;;5.88;5.28;;;;;;;;;;5097491;28;21311;-66
2023/10/19 00:35:51;;;;;;;6.32;5.72;;;;;;;;;;5094872;28;20047;-67
2023/10/19 00:38:38;;;;;;;5.95;5.45;;;;;;;;;;5095511;27;20138;-67
2023/10/19 00:41:11;;;;;;;5.82;5.30;;;;;;;;;;5097650;27;20073;-67
2023/10/19 00:43:44;;;;;;;5.32;4.82;;;;;;;;;;5100139;28;20039;-67
2023/10/19 00:46:20;;;;;;;6.55;5.65;;;;;;;;;;5098178;28;20048;-67
2023/10/19 00:48:55;;;;;;;6.05;5.45;;;;;;;;;;5099810;27;20430;-67
2023/10/19 00:51:40;;;;;;;6.00;5.50;;;;;;;;;;5098273;28;20048;-67
2023/10/19 00:54:10;;;;;;;5.30;4.90;;;;;;;;;;5096878;28;20138;-67
2023/10/19 00:56:44;;;;;;;5.82;5.30;;;;;;;;;;5100790;28;20048;-67
2023/10/19 00:59:14;;;;;;;6.53;5.60;;;;;;;;;;5100107;27;20487;-67
2023/10/19 01:01:45;;;;;;;5.88;5.43;;;;;;;;;;5098974;27;20159;-67
2023/10/19 01:04:20;;;;;;;6.88;5.28;;;;;;;;;;5099314;27;20190;-67
2023/10/19 01:07:00;;;;;;;5.70;5.20;;;;;;;;;;5097432;28;20052;-67
2023/10/19 01:09:34;;;;;;;5.18;4.78;;;;;;;;;;5101551;27;20040;-67
2023/10/19 01:12:11;;;;;;;6.07;5.57;;;;;;;;;;5100593;28;20044;-68
2023/10/19 01:14:40;;;;;;;5.60;5.13;;;;;;;;;;5097363;27;20047;-68
2023/10/19 01:17:11;;;;;;;5.88;5.38;;;;;;;;;;5100582;28;20496;-68
2023/10/19 01:19:41;;;;;;;4.85;4.45;;;;;;;;;;5097412;28;20866;-67
2023/10/19 01:22:16;;;;;;;6.03;5.43;;;;;;;;;;5101528;28;20088;-67
2023/10/19 01:24:44;;;;;;;;;;;;;;;;;;5098207;27;20434;-67
2023/10/19 01:27:14;;;;;;;5.50;5.00;;;;;;;;;;5098701;27;20007;-68
2023/10/19 01:29:43;;;;;;;5.70;5.20;;;;;;;;;;5099408;27;20142;-68
2023/10/19 01:32:12;;;;;;;5.32;4.88;;;;;;;;;;5096663;28;20895;-68
2023/10/19 01:34:40;;;;;;;4.95;4.55;;;;;;;;;;5094905;27;20044;-67
2023/10/19 01:37:08;;;;;;;5.85;5.35;;;;;;;;;;5098922;28;20048;-67
2023/10/19 01:39:38;;;;;;;5.72;5.22;;;;;;;;;;5099263;27;20095;-68
2023/10/19 01:42:08;;;;;;;5.80;5.30;;;;;;;;;;5096331;28;20126;-67
2023/10/19 01:44:38;;;;;;;6.47;5.82;;;;;;;;;;5098560;27;20070;-68
2023/10/19 01:47:05;;;;;;;6.65;6.05;;;;;;;;;;5097409;28;20079;-67
2023/10/19 01:49:34;;;;;;;4.80;4.43;;;;;;;;;;5095093;28;20044;-67
2023/10/19 01:52:02;;;;;;;5.63;5.10;;;;;;;;;;5096826;28;20048;-67
2023/10/19 01:54:31;;;;;;;5.68;5.15;;;;;;;;;;5101312;27;20386;-67
2023/10/19 01:56:58;;;;;;;5.30;4.82;;;;;;;;;;5098832;28;20093;-67
2023/10/19 01:59:29;;;;;;;5.80;5.20;;;;;;;;;;5100779;27;20052;-67
2023/10/19 02:01:59;;;;;;;5.53;5.03;;;;;;;;;;5099140;28;20488;-67
2023/10/19 02:04:26;;;;;;;6.20;5.60;;;;;;;;;;5098067;27;20064;-67
2023/10/19 02:06:56;;;;;;;5.13;4.72;;;;;;;;;;5096297;28;20047;-67
2023/10/19 02:09:25;;;;;;;6.18;5.20;;;;;;;;;;5096310;27;20075;-67
2023/10/19 02:11:55;;;;;;;5.90;5.40;;;;;;;;;;5096185;28;20097;-67
2023/10/19 02:14:24;;;;;;;5.38;4.95;;;;;;;;;;5097686;28;20051;-68
2023/10/19 02:16:56;;;;;;;5.93;5.43;;;;;;;;;;5099834;28;20068;-67
2023/10/19 02:19:26;;;;;;;5.78;5.22;;;;;;;;;;5095232;27;20062;-67
2023/10/19 02:21:56;;;;;;;5.85;5.35;;;;;;;;;;5095967;28;20047;-67
2023/10/19 02:24:24;;;;;;;5.03;4.63;;;;;;;;;;5097116;27;20524;-67
2023/10/19 02:26:54;;;;;;;5.32;4.88;;;;;;;;;;5096665;28;20048;-67
2023/10/19 02:29:22;;;;;;;5.20;4.80;;;;;;;;;;5093460;27;20503;-67
2023/10/19 02:31:50;;;;;;;5.95;5.38;;;;;;;;;;5097124;28;20044;-67
2023/10/19 02:34:18;;;;;;;6.30;5.50;;;;;;;;;;5098457;27;20504;-68
2023/10/19 02:36:48;;;;;;;5.40;4.97;;;;;;;;;;5102284;27;20047;-67
2023/10/19 02:39:17;;;;;;;5.97;5.38;;;;;;;;;;5093471;28;20508;-67
2023/10/19 02:41:47;;;;;;;6.18;5.68;;;;;;;;;;5097997;28;20113;-67
2023/10/19 02:44:19;;;;;;;5.63;5.13;;;;;;;;;;5093452;28;20136;-68
2023/10/19 02:46:50;;;;;;;7.05;5.20;;;;;;;;;;5096519;28;20377;-68
2023/10/19 02:49:18;;;;;;;5.90;5.40;;;;;;;;;;5096702;28;20242;-67
2023/10/19 02:51:49;;;;;;;6.32;5.70;;;;;;;;;;5095773;28;20515;-67
2023/10/19 02:54:19;;;;;;;6.40;5.78;;;;;;;;;;5095298;28;20133;-67
2023/10/19 02:56:49;;;;;;;5.63;5.13;;;;;;;;;;5096716;28;20036;-67
2023/10/19 02:59:22;;;;;;;5.30;4.80;;;;;;;;;;5093150;27;20506;-67
2023/10/19 03:01:51;;;;;;;5.65;5.15;;;;;;;;;;5093720;28;20054;-67
2023/10/19 03:04:19;;;;;;;4.88;4.43;;;;;;;;;;5098921;27;20040;-67
2023/10/19 03:06:52;;;;;;;5.43;4.93;;;;;;;;;;5096242;28;20100;-67
2023/10/19 03:09:23;;;;;;;5.63;5.13;;;;;;;;;;5097873;28;20039;-68
2023/10/19 03:11:53;;;;;;;5.55;5.05;;;;;;;;;;5094431;28;20468;-66
2023/10/19 03:14:24;;;;;;;6.05;5.55;;;;;;;;;;5095209;28;20051;-67
2023/10/19 03:16:54;;;;;;;4.72;4.43;;;;;;;;;;5094101;28;20085;-67
2023/10/19 03:19:24;;;;;;;5.22;4.82;;;;;;;;;;5098140;28;20043;-67
2023/10/19 03:21:55;;;;;;;5.50;4.63;;;;;;;;;;5092920;28;20535;-68
2023/10/19 03:24:35;;;;;;;5.40;4.90;;;;;;;;;;5097801;28;21252;-67
2023/10/19 03:27:08;;;;;;;6.30;5.28;;;;;;;;;;5100457;28;20132;-68
2023/10/19 03:29:40;;;;;;;5.68;5.18;;;;;;;;;;5095622;28;20492;-68
2023/10/19 03:32:09;;;;;;;5.97;4.97;;;;;;;;;;5095962;28;20047;-68
2023/10/19 03:34:38;;;;;;;5.38;4.80;;;;;;;;;;5093612;28;20120;-64
2023/10/19 03:37:12;;;;;;;5.78;5.28;;;;;;;;;;5096877;28;20164;-67
2023/10/19 03:39:45;;;;;;;5.28;4.88;;;;;;;;;;5093774;28;20075;-68
2023/10/19 03:42:14;;;;;;;7.43;4.90;;;;;;;;;;5095217;28;20481;-65
2023/10/19 03:44:51;;;;;;;5.53;5.03;;;;;;;;;;5097018;28;20051;-67
2023/10/19 03:47:20;;;;;;;5.55;5.05;;;;;;;;;;5098612;28;20096;-67
2023/10/19 03:49:50;;;;;;;5.25;4.78;;;;;;;;;;5096374;28;20465;-67
2023/10/19 03:52:23;;;;;;;4.97;4.57;;;;;;;;;;5098729;28;20093;-67
2023/10/19 03:54:53;;;;;;;5.75;5.25;;;;;;;;;;5094647;28;20523;-67
2023/10/19 03:57:22;;;;;;;5.95;5.45;;;;;;;;;;5098583;28;20044;-67
2023/10/19 03:59:53;;;;;;;5.93;5.43;;;;;;;;;;5093048;28;20050;-67
2023/10/19 04:02:23;;;;;;;5.13;4.63;;;;;;;;;;5091133;28;20051;-67
2023/10/19 04:04:55;;;;;;;5.55;5.05;;;;;;;;;;5091146;28;20043;-67
2023/10/19 04:07:26;;;;;;;4.95;4.55;;;;;;;;;;5095576;28;20047;-67
2023/10/19 04:09:59;;;;;;;4.93;4.45;;;;;;;;;;5095697;28;20043;-67
2023/10/19 04:12:31;;;;;;;5.15;4.57;;;;;;;;;;5095600;28;20101;-67
2023/10/19 04:15:09;;;;;;;5.57;5.18;;;;;;;;;;5099153;27;20507;-67
2023/10/19 04:17:39;;;;;;;5.07;4.68;;;;;;;;;;5100488;27;20082;-67
2023/10/19 04:20:26;;;;;;;5.90;5.30;;;;;;;;;;5097986;28;20464;-67
2023/10/19 04:22:56;;;;;;;5.32;4.82;;;;;;;;;;5098750;28;20052;-67
2023/10/19 04:25:26;;;;;;;6.20;5.25;;;;;;;;;;5096900;28;20051;-67
2023/10/19 04:27:56;;;;;;;5.90;5.38;;;;;;;;;;5096349;28;20048;-67
2023/10/19 04:30:26;;;;;;;5.47;5.00;;;;;;;;;;5096856;27;20047;-67
2023/10/19 04:32:58;;;;;;;5.95;5.07;;;;;;;;;;5102719;27;20084;-67
2023/10/19 04:35:30;;;;;;;5.90;5.32;;;;;;;;;;5099275;27;20051;-67
2023/10/19 04:38:00;;;;;;;5.80;5.30;;;;;;;;;;5098733;27;20055;-67
2023/10/19 04:40:29;;;;;;;5.68;5.03;;;;;;;;;;5098095;27;20051;-67
2023/10/19 04:42:57;;;;;;;5.60;5.10;;;;;;;;;;5102003;27;20047;-67
2023/10/19 04:45:26;;;;;;;6.28;5.65;;;;;;;;;;5096908;28;20051;-67
2023/10/19 04:47:54;;;;;;;5.50;5.00;;;;;;;;;;5100570;28;20043;-67
2023/10/19 04:50:23;;;;;;;4.93;4.53;;;;;;;;;;5095339;28;20044;-67
2023/10/19 04:52:52;;;;;;;5.47;4.97;;;;;;;;;;5099937;28;20438;-67
2023/10/19 04:55:22;;;;;;;5.30;4.90;;;;;;;;;;5097947;27;20058;-67
2023/10/19 04:57:50;;;;;;;7.07;5.32;;;;;;;;;;5101650;27;20119;-67
2023/10/19 05:00:20;;;;;;;5.22;4.72;;;;;;;;;;5102968;27;20055;-67
2023/10/19 05:02:51;;;;;;;5.40;5.00;;;;;;;;;;5102481;28;20070;-67
2023/10/19 05:05:20;;;;;;;6.43;5.28;;;;;;;;;;5098137;27;20047;-67
2023/10/19 05:07:49;;;;;;;5.63;5.13;;;;;;;;;;5104121;27;20051;-67
2023/10/19 05:10:19;;;;;;;5.30;4.88;;;;;;;;;;5099444;27;20134;-67
2023/10/19 05:12:49;;;;;;;5.80;5.20;;;;;;;;;;5101747;27;20044;-68
2023/10/19 05:15:18;;;;;;;5.13;4.72;;;;;;;;;;5100787;27;20150;-67
2023/10/19 05:17:47;;;;;;;4.53;4.20;;;;;;;;;;5102139;27;20052;-67
2023/10/19 05:20:16;;;;;;;6.45;4.68;;;;;;;;;;5100530;27;20073;-67
2023/10/19 05:22:44;;;;;;;5.10;4.70;;;;;;;;;;5100318;28;20051;-67
2023/10/19 05:25:12;;;;;;;5.63;5.13;;;;;;;;;;5098670;27;20127;-67
2023/10/19 05:27:42;;;;;;;4.88;4.47;;;;;;;;;;5094509;27;20109;-67
2023/10/19 05:30:12;;;;;;;5.32;4.93;;;;;;;;;;5100196;27;20052;-67
2023/10/19 05:32:41;;;;;;;5.88;5.30;;;;;;;;;;5100947;27;20482;-67
2023/10/19 05:35:13;;;;;;;7.35;5.60;;;;;;;;;;5101492;27;20062;-67
2023/10/19 05:37:42;;;;;;;5.05;4.65;;;;;;;;;;5097933;27;20404;-67
2023/10/19 05:40:14;;;;;;;5.30;4.90;;;;;;;;;;5098422;27;20836;-67
2023/10/19 05:42:43;;;;;;;5.55;5.13;;;;;;;;;;5096850;28;20048;-67
2023/10/19 05:45:16;;;;;;;4.93;4.53;;;;;;;;;;5098854;28;20051;-67
2023/10/19 05:47:45;;;;;;;5.28;4.78;;;;;;;;;;5100573;28;20534;-68
2023/10/19 05:50:15;;;;;;;5.18;4.70;;;;;;;;;;5101658;28;20166;-67
2023/10/19 05:52:43;;;;;;;5.05;4.65;;;;;;;;;;5097480;27;20064;-68
2023/10/19 05:55:12;;;;;;;5.15;4.70;;;;;;;;;;5095373;27;20044;-67
2023/10/19 05:57:41;;;;;;;4.65;4.22;;;;;;;;;;5099990;27;20131;-67
2023/10/19 06:00:13;;;;;;;5.25;4.78;;;;;;;;;;5098925;28;20052;-68
2023/10/19 06:02:44;;;;;;;4.85;4.45;;;;;;;;;;5100367;28;20043;-67
2023/10/19 06:05:15;;;;;;;5.32;4.93;;;;;;;;;;5099546;28;20412;-66
2023/10/19 06:07:44;;;;;;;5.00;4.60;;;;;;;;;;5096405;27;20042;-66
2023/10/19 06:10:15;;;;;;;4.50;4.10;;;;;;;;;;5099255;27;20051;-66
2023/10/19 06:12:44;;;;;;;5.72;5.18;;;;;;;;;;5094616;28;20051;-67
2023/10/19 06:15:12;;;;;;;5.53;5.03;;;;;;;;;;5098434;28;20039;-66
2023/10/19 06:17:42;;;;;;;5.00;4.60;;;;;;;;;;5094189;27;20047;-66
2023/10/19 06:20:19;;;;;;;5.43;4.95;;;;;;;;;;5099020;27;20051;-67
2023/10/19 06:22:50;;;;;;;5.15;4.75;;;;;;;;;;5101574;27;20458;-67
2023/10/19 06:25:19;;;;;;;4.28;3.97;;;;;;;;;;5098291;27;20052;-67
2023/10/19 06:27:47;;;;;;;5.20;4.70;;;;;;;;;;5097427;28;20148;-67
2023/10/19 06:30:18;;;;;;;4.95;4.55;;;;;;;;;;5099431;27;20354;-67
2023/10/19 06:32:48;;;;;;;4.93;4.53;;;;;;;;;;5099553;28;20044;-67
2023/10/19 06:35:18;;;;;;;4.78;4.38;;;;;;;;;;5100673;28;20043;-67
2023/10/19 06:37:47;;;;;;;4.32;4.03;;;;;;;;;;5098716;27;20116;-67
2023/10/19 06:40:17;;;;;;;5.13;4.68;;;;;;;;;;5095525;28;20044;-67
2023/10/19 06:42:46;;;;;;;5.00;4.60;;;;;;;;;;5101528;28;20506;-67
2023/10/19 06:45:14;;;;;;;5.18;4.78;;;;;;;;;;5099678;28;20126;-67
2023/10/19 06:47:44;;;;;;;5.10;4.70;;;;;;;;;;5098187;27;20108;-67
2023/10/19 06:50:15;;;;;;;5.38;4.88;;;;;;;;;;5099890;28;20044;-67
2023/10/19 06:52:46;;;;;;;5.18;4.45;;;;;;;;;;5095244;28;20044;-67
2023/10/19 06:55:16;;;;;;;4.72;4.32;;;;;;;;;;5101147;28;20051;-67
2023/10/19 06:57:45;;;;;;;4.70;4.30;;;;;;;;;;5098474;27;20565;-67
2023/10/19 07:00:19;;;;;;;4.80;4.40;;;;;;;;;;5093707;28;20109;-67
2023/10/19 07:02:48;;;;;;;5.28;4.78;;;;;;;;;;5100650;28;20474;-67
2023/10/19 07:05:21;;;;;;;4.90;4.40;;;;;;;;;;5099590;27;20130;-67
2023/10/19 07:07:53;;;;;;;5.35;4.93;;;;;;;;;;5096894;27;20044;-67
2023/10/19 07:10:22;;;;;;;4.35;4.05;;;;;;;;;;5096851;28;20048;-67
2023/10/19 07:12:53;;;;;;;5.00;4.60;;;;;;;;;;5096055;28;20416;-67
2023/10/19 07:15:23;;;;;;;4.63;4.28;;;;;;;;;;5095007;28;20044;-67
2023/10/19 07:17:53;;;;;;;4.30;3.95;;;;;;;;;;5097374;27;20055;-67
2023/10/19 07:20:25;;;;;;;4.45;4.07;;;;;;;;;;5097271;28;20058;-67
2023/10/19 07:22:55;;;;;;;5.05;4.57;;;;;;;;;;5094131;28;20431;-68
2023/10/19 07:25:25;;;;;;;4.78;4.38;;;;;;;;;;5094890;28;20538;-66
2023/10/19 07:27:54;;;;;;;4.65;4.25;;;;;;;;;;5095373;28;20548;-67
2023/10/19 07:30:26;;;;;;;5.60;5.20;;;;;;;;;;5097717;28;20054;-67
2023/10/19 07:32:58;;;;;;;4.75;4.35;;;;;;;;;;5097863;28;20554;-67
2023/10/19 07:35:27;;;;;;;5.45;4.95;;;;;;;;;;5093783;28;20072;-68
2023/10/19 07:37:57;;;;;;;5.88;5.38;;;;;;;;;;5096240;28;20047;-67
2023/10/19 07:40:26;;;;;;;5.45;4.95;;;;;;;;;;5097353;28;20052;-66
2023/10/19 07:42:55;;;;;;;5.43;4.93;;;;;;;;;;5094676;28;20052;-67
2023/10/19 07:45:25;;;;;;;5.22;4.72;;;;;;;;;;5095894;28;20839;-66
2023/10/19 07:47:54;;;;;;;6.00;5.05;;;;;;;;;;5094800;27;20044;-66
2023/10/19 07:50:23;;;;;;;6.45;5.28;;;;;;;;;;5097296;27;20077;-66
2023/10/19 07:52:53;;;;;;;5.57;5.03;;;;;;;;;;5103257;27;20074;-67
2023/10/19 07:55:24;;;;;;;5.30;4.82;;;;;;;;;;5099826;28;20058;-66
2023/10/19 07:57:52;;;;;;;5.20;4.80;;;;;;;;;;5099490;28;20477;-66
2023/10/19 08:00:21;;;;;;;5.03;4.63;;;;;;;;;;5099128;27;20048;-66
2023/10/19 08:02:51;;;;;;;8.00;4.80;;;;;;;;;;5101695;28;20132;-66
2023/10/19 08:05:21;;;;;;;5.72;5.25;;;;;;;;;;5100161;28;20072;-66
2023/10/19 08:07:50;;;;;;;6.65;5.90;;;;;;;;;;5101003;27;20039;-66
2023/10/19 08:10:19;;;;;;;5.10;4.70;;;;;;;;;;5102343;27;20419;-70
2023/10/19 08:12:51;;;;;;;5.07;4.57;;;;;;;;;;5097801;28;20097;-70
2023/10/19 08:15:21;;;;;;;4.35;4.00;;;;;;;;;;5096804;28;20489;-70
2023/10/19 08:17:50;;;;;;;4.97;4.55;;;;;;;;;;5101700;28;20539;-70
2023/10/19 08:20:23;;;;;;;5.00;4.60;;;;;;;;;;5102181;27;20067;-69
2023/10/19 08:22:54;;;;;;;6.90;4.33;;;;;;;;;;5099344;27;20059;-69
2023/10/19 08:25:22;;;;;;;4.15;3.75;;;;;;;;;;5103623;27;20321;-69
2023/10/19 08:27:56;;;;;;;5.72;4.25;;;;;;;;;;5101951;28;20455;-69
2023/10/19 08:30:24;;;;;;;4.85;4.45;;;;;;;;;;5099299;27;20138;-70
2023/10/19 08:32:57;;;;;;;4.75;4.35;;;;;;;;;;5100743;28;20174;-70
2023/10/19 08:35:26;;;;;;;4.40;4.00;;;;;;;;;;5101221;27;20071;-70
2023/10/19 08:37:56;;;;;;;4.60;4.20;;;;;;;;;;5098814;28;20747;-70
2023/10/19 08:40:26;;;;;;;4.03;3.63;;;;;;;;;;5098679;27;20102;-70
2023/10/19 08:42:56;;;;;;;5.55;3.80;;;;;;;;;;5098081;27;20588;-70
2023/10/19 08:45:26;;;;;;;4.95;3.70;;;;;;;;;;5097266;28;20501;-70
2023/10/19 08:47:56;;;;;;;3.97;3.67;;;;;;;;;;5101583;28;20144;-70
2023/10/19 08:50:25;;;;;;;4.38;3.97;;;;;;;;;;5101573;27;20494;-70
2023/10/19 08:52:54;;;;;;;3.90;3.60;;;;;;;;;;5100414;28;20438;-70
2023/10/19 08:55:23;;;;;;;4.07;3.78;;;;;;;;;;5097019;27;20079;-70
2023/10/19 08:58:13;;;;;;;3.97;3.67;;;;;;;;;;5098661;27;20040;-70
2023/10/19 09:00:46;;;;;;;4.28;3.88;;;;;;;;;;5099256;27;20040;-70
2023/10/19 09:03:17;;;;;;;3.95;3.55;;;;;;;;;;5099886;28;20445;-72
2023/10/19 09:05:47;;;;;;;4.43;4.03;;;;;;;;;;5098855;28;20055;-71
2023/10/19 09:08:17;;;;;;;4.35;3.95;;;;;;;;;;5094242;28;20048;-71
2023/10/19 09:10:48;;;;;;;3.95;3.55;;;;;;;;;;5098942;28;20046;-72
2023/10/19 09:13:19;;;;;;;3.83;3.53;;;;;;;;;;5100657;27;20403;-71
2023/10/19 09:15:49;;;;;;;3.85;3.55;;;;;;;;;;5101570;28;20055;-72
2023/10/19 09:18:19;;;;;;;4.50;4.10;;;;;;;;;;5101732;28;20056;-72
2023/10/19 09:20:53;;;;;;;4.05;3.72;;;;;;;;;;5100218;28;20040;-71
2023/10/19 09:23:22;;;;;;;4.55;4.25;;;;;;;;;;5100110;28;20481;-71
2023/10/19 09:25:52;;;;;;;4.00;3.67;;;;;;;;;;5103816;27;20455;-71
2023/10/19 09:28:23;;;;;;;4.38;4.07;;;;;;;;;;5098221;28;20101;-71
2023/10/19 09:30:53;;;;;;;4.60;4.20;;;;;;;;;;5100114;28;20051;-70
2023/10/19 09:33:24;;;;;;;4.93;4.53;;;;;;;;;;5097268;28;20044;-71
2023/10/19 09:35:56;;;;;;;5.00;4.50;;;;;;;;;;5098592;28;20056;-71
2023/10/19 09:38:24;;;;;;;4.82;4.45;;;;;;;;;;5097377;27;20052;-71
2023/10/19 09:40:54;;;;;;;5.57;5.07;;;;;;;;;;5097927;28;20484;-71
2023/10/19 09:43:29;;;;;;;4.93;4.53;;;;;;;;;;5099783;28;20036;-71
2023/10/19 09:46:00;;;;;;;4.82;4.43;;;;;;;;;;5097764;28;20492;-71
2023/10/19 09:48:29;;;;;;;5.10;4.60;;;;;;;;;;5094243;28;20056;-72
2023/10/19 09:50:58;;;;;;;5.53;4.85;;;;;;;;;;5099183;27;20082;-71
2023/10/19 09:53:27;;;;;;;5.63;4.55;;;;;;;;;;5096395;27;20039;-71
2023/10/19 09:55:58;;;;;;;4.80;4.32;;;;;;;;;;5099399;27;20492;-71
2023/10/19 09:58:30;;;;;;;5.13;4.45;;;;;;;;;;5097534;28;20047;-71
2023/10/19 10:00:58;;;;;;;4.82;4.43;;;;;;;;;;5097612;28;20092;-71
2023/10/19 10:03:45;;;;;;;4.90;4.47;;;;;;;;;;5099662;28;20347;-71
2023/10/19 10:06:14;;;;;;;4.95;4.55;;;;;;;;;;5099286;28;20048;-71
2023/10/19 10:08:43;;;;;;;5.10;4.70;;;;;;;;;;5101666;28;20097;-71
2023/10/19 10:11:16;;;;;;;5.65;4.50;;;;;;;;;;5096964;27;20044;-71
2023/10/19 10:13:50;;;;;;;4.78;4.38;;;;;;;;;;5096776;28;20111;-72
2023/10/19 10:16:20;;;;;;;5.43;4.35;;;;;;;;;;5098526;27;20122;-72
2023/10/19 10:18:50;;;;;;;4.35;4.05;;;;;;;;;;5099833;28;20500;-72
2023/10/19 10:21:20;;;;;;;4.47;4.07;;;;;;;;;;5099265;27;20385;-72
2023/10/19 10:23:49;;;;;;;4.50;4.15;;;;;;;;;;5100003;28;20051;-72
2023/10/19 10:26:19;;;;;;;5.50;4.45;;;;;;;;;;5098246;28;20048;-72
2023/10/19 10:28:49;;;;;;;4.32;4.03;;;;;;;;;;5097883;28;20040;-72
2023/10/19 10:31:22;;;;;;;4.15;3.80;;;;;;;;;;5101481;27;20464;-73
2023/10/19 10:33:51;;;;;;;5.75;3.90;;;;;;;;;;5099216;28;20113;-72
2023/10/19 10:36:20;;;;;;;6.55;3.83;;;;;;;;;;5096424;28;20043;-72
2023/10/19 10:38:49;;;;;;;3.72;3.42;;;;;;;;;;5098217;28;20122;-72
2023/10/19 10:41:25;;;;;;;3.97;3.67;;;;;;;;;;5097261;28;20052;-72
2023/10/19 10:43:55;;;;;;;3.75;3.45;;;;;;;;;;5096493;28;20058;-72
2023/10/19 10:46:25;;;;;;;4.30;3.97;;;;;;;;;;5100395;28;20051;-72
2023/10/19 10:48:53;;;;;;;3.83;3.53;;;;;;;;;;5097486;28;20078;-72
2023/10/19 10:51:22;;;;;;;4.05;3.75;;;;;;;;;;5095198;27;20101;-73
2023/10/19 10:53:52;;;;;;;3.90;3.50;;;;;;;;;;5097158;28;20047;-72
2023/10/19 10:56:21;;;;;;;4.10;3.80;;;;;;;;;;5100255;28;20059;-73
2023/10/19 10:58:51;;;;;;;4.45;3.88;;;;;;;;;;5097249;27;20105;-75
2023/10/19 11:01:30;;;;;;;3.75;3.45;;;;;;;;;;5099985;28;20039;-73
2023/10/19 11:04:10;;;;;;;4.07;3.70;;;;;;;;;;5098269;28;20044;-73
2023/10/19 11:06:50;;;;;;;4.20;3.80;;;;;;;;;;5098626;28;20047;-73
2023/10/19 11:09:19;;;;;;;4.15;3.72;;;;;;;;;;5097907;28;20135;-73
2023/10/19 11:11:49;;;;;;;4.00;3.70;;;;;;;;;;5101378;28;20107;-73
2023/10/19 11:14:17;;;;;;;4.28;3.95;;;;;;;;;;5097326;28;20083;-73
2023/10/19 11:16:47;;;;;;;3.88;3.55;;;;;;;;;;5100798;28;20045;-74
2023/10/19 11:19:16;;;;;;;3.78;3.42;;;;;;;;;;5096315;27;20047;-74
2023/10/19 11:21:54;;;;;;;4.90;4.22;;;;;;;;;;5098813;27;20048;-74
2023/10/19 11:24:29;;;;;;;4.40;4.00;;;;;;;;;;5097248;28;20040;-73
2023/10/19 11:26:58;;;;;;;5.90;5.03;;;;;;;;;;5096149;28;20044;-74
2023/10/19 11:29:27;;;;;;;6.22;5.60;;;;;;;;;;5102923;28;20310;-74
2023/10/19 11:32:00;;;;;;;7.22;4.65;;;;;;;;;;5101025;28;20499;-75
2023/10/19 11:34:29;;;;;;;5.30;4.80;;;;;;;;;;5100054;28;20039;-73
2023/10/19 11:37:00;;;;;;;8.35;5.25;;;;;;;;;;5095608;28;20039;-75
2023/10/19 11:39:29;;;;;;;8.45;5.05;;;;;;;;;;5098630;27;20076;-76
2023/10/19 11:41:58;;;;;;;5.10;4.60;;;;;;;;;;5097016;27;20063;-75
2023/10/19 11:44:26;;;;;;;5.53;5.03;;;;;;;;;;5103881;28;20495;-74
2023/10/19 11:46:55;;;;;;;6.22;4.65;;;;;;;;;;5099673;28;20051;-72
2023/10/19 11:49:24;;;;;;;5.40;4.90;;;;;;;;;;5097253;28;20108;-76
2023/10/19 11:51:54;;;;;;;5.22;4.57;;;;;;;;;;5095246;28;20645;-73
2023/10/19 11:54:22;;;;;;;4.25;3.85;;;;;;;;;;5101143;28;20354;-74
2023/10/19 11:56:51;;;;;;;4.68;4.00;;;;;;;;;;5095675;28;20044;-74
2023/10/19 11:59:19;;;;;;;4.25;3.85;;;;;;;;;;5099263;28;20139;-77
2023/10/19 12:01:48;;;;;;;3.88;3.58;;;;;;;;;;5097020;28;20149;-74
2023/10/19 12:04:16;;;;;;;5.07;4.03;;;;;;;;;;5099073;28;20485;-75
2023/10/19 12:06:47;;;;;;;3.80;3.50;;;;;;;;;;5091704;28;20052;-75
2023/10/19 12:09:15;;;;;;;3.95;3.60;;;;;;;;;;5100149;28;20063;-74
2023/10/19 12:11:44;;;;;;;4.88;4.40;;;;;;;;;;5098332;28;20143;-76
2023/10/19 12:14:16;;;;;;;4.38;4.00;;;;;;;;;;5096588;28;20123;-76
2023/10/19 12:16:45;;;;;;;7.10;5.03;;;;;;;;;;5094027;28;20044;-74
2023/10/19 12:19:15;;;;;;;4.50;3.40;;;;;;;;;;5096450;28;20466;-74
2023/10/19 12:21:44;;;;;;;3.67;3.38;;;;;;;;;;5097939;28;20684;-75
2023/10/19 12:24:15;;;;;;;4.20;3.90;;;;;;;;;;5096192;28;20458;-72
2023/10/19 12:26:44;;;;;;;3.75;3.45;;;;;;;;;;5094327;28;20054;-72
2023/10/19 12:29:16;;;;;;;4.13;3.83;;;;;;;;;;5087456;28;20039;-72
2023/10/19 12:31:46;;;;;;;3.67;3.13;;;;;;;;;;5091177;28;20043;-72
2023/10/19 12:34:16;;;;;;;4.10;3.67;;;;;;;;;;5095179;28;20051;-71
2023/10/19 12:36:46;;;;;;;3.40;3.10;;;;;;;;;;5099316;28;20048;-73
2023/10/19 12:39:35;;;;;;;5.93;3.42;;;;;;;;;;5098882;27;20056;-72
2023/10/19 12:42:04;;;;;;;3.40;3.10;;;;;;;;;;5098455;28;20044;-72
2023/10/19 12:44:39;;;;;;;4.00;3.33;;;;;;;;;;5100074;27;20156;-72
2023/10/19 12:47:09;;;;;;;;;;;;;;;;;;5102587;28;20047;-72
2023/10/19 12:49:38;;;;;;;4.07;3.10;;;;;;;;;;5099947;27;21873;-72
2023/10/19 12:52:07;;;;;;;3.50;3.22;;;;;;;;;;5102083;27;20545;-72
2023/10/19 12:54:37;;;;;;;3.50;3.20;;;;;;;;;;5103461;28;20063;-73
2023/10/19 12:57:07;;;;;;;3.80;3.50;;;;;;;;;;5098532;28;20043;-71
2023/10/19 12:59:37;;;;;;;3.78;3.47;;;;;;;;;;5100397;27;20500;-70
2023/10/19 13:02:08;;;;;;;3.30;3.10;;;;;;;;;;5101121;28;20047;-70
2023/10/19 13:04:37;;;;;;;3.28;2.97;;;;;;;;;;5098200;28;20210;-71
2023/10/19 13:07:07;;;;;;;3.13;2.83;;;;;;;;;;5098830;28;20089;-70
2023/10/19 13:09:37;;;;;;;3.17;2.88;;;;;;;;;;5098682;27;20048;-70
2023/10/19 13:12:07;;;;;;;2.90;2.70;;;;;;;;;;5094364;28;20055;-72
2023/10/19 13:14:36;;;;;;;2.90;2.70;;;;;;;;;;5099140;28;20051;-72
2023/10/19 13:17:05;;;;;;;4.65;2.70;;;;;;;;;;5101671;28;20700;-73
2023/10/19 13:19:36;;;;;;;3.15;2.85;;;;;;;;;;5097718;27;20072;-73
2023/10/19 13:22:07;;;;;;;3.03;2.83;;;;;;;;;;5096023;28;20058;-73
2023/10/19 13:24:41;;;;;;;4.25;2.80;;;;;;;;;;5102540;28;20101;-72
2023/10/19 13:27:10;;;;;;;2.80;2.60;;;;;;;;;;5098433;28;20075;-71
2023/10/19 13:29:41;;;;;;;3.20;2.83;;;;;;;;;;5097979;28;20063;-71
2023/10/19 13:32:10;;;;;;;3.40;2.80;;;;;;;;;;5099629;28;20056;-72
2023/10/19 13:34:40;;;;;;;4.75;3.33;;;;;;;;;;5097347;28;20417;-71
2023/10/19 13:37:08;;;;;;;2.90;2.70;;;;;;;;;;5095686;27;20051;-71
2023/10/19 13:39:39;;;;;;;2.83;2.63;;;;;;;;;;5098341;27;20120;-71
2023/10/19 13:42:08;;;;;;;3.13;2.70;;;;;;;;;;5101541;27;20098;-70
2023/10/19 13:44:38;;;;;;;4.38;3.03;;;;;;;;;;5095911;28;20096;-71
2023/10/19 13:47:08;;;;;;;3.00;2.80;;;;;;;;;;5099283;28;20058;-71
2023/10/19 13:49:37;;;;;;;2.70;2.50;;;;;;;;;;5098638;27;20101;-71
2023/10/19 13:52:08;;;;;;;3.70;2.80;;;;;;;;;;5095490;28;20048;-70
2023/10/19 13:54:38;;;;;;;3.15;2.72;;;;;;;;;;5096417;27;20056;-69
2023/10/19 13:57:06;;;;;;;2.50;2.30;;;;;;;;;;5097845;28;20044;-69
2023/10/19 13:59:35;;;;;;;2.42;2.22;;;;;;;;;;5095499;27;20052;-69
2023/10/19 14:02:03;;;;;;;2.50;2.30;;;;;;;;;;5098425;28;20408;-69
2023/10/19 14:04:32;;;;;;;2.67;2.47;;;;;;;;;;5099313;28;20743;-69
2023/10/19 14:07:01;;;;;;;2.30;2.20;;;;;;;;;;5098828;28;20484;-73
2023/10/19 14:09:31;;;;;;;2.85;2.15;;;;;;;;;;5097591;27;20406;-69
2023/10/19 14:12:04;;;;;;;2.58;2.35;;;;;;;;;;5096685;27;20040;-70
2023/10/19 14:14:32;;;;;;;2.38;2.20;;;;;;;;;;5098057;27;20047;-72
2023/10/19 14:17:00;;;;;;;2.80;2.60;;;;;;;;;;5100494;28;20043;-72
2023/10/19 14:19:29;;;;;;;2.40;2.30;;;;;;;;;;5094897;28;20047;-72
2023/10/19 14:22:01;;;;;;;2.25;2.15;;;;;;;;;;5100388;27;20039;-73
2023/10/19 14:24:30;;;;;;;2.30;2.20;;;;;;;;;;5096918;28;20062;-75
2023/10/19 14:27:00;;;;;;;2.70;2.50;;;;;;;;;;5101188;28;20047;-74
2023/10/19 14:29:30;;;;;;;2.40;2.22;;;;;;;;;;5099042;27;20044;-71
2023/10/19 14:31:58;;;;;;;2.50;2.30;;;;;;;;;;5104237;28;20075;-74
2023/10/19 14:34:27;;;;;;;2.65;2.45;;;;;;;;;;5101229;28;20067;-77
2023/10/19 14:36:55;;;;;;;2.92;2.63;;;;;;;;;;5099827;28;20642;-76
2023/10/19 14:39:24;;;;;;;2.95;2.75;;;;;;;;;;5100316;28;20507;-72
2023/10/19 14:41:53;;;;;;;3.30;3.00;;;;;;;;;;5097781;28;20044;-75
2023/10/19 14:44:21;;;;;;;5.15;4.38;;;;;;;;;;5101204;27;20135;-75
2023/10/19 14:46:52;;;;;;;5.00;4.38;;;;;;;;;;5096527;28;20100;-77
2023/10/19 14:49:20;;;;;;;5.28;4.30;;;;;;;;;;5101088;28;20063;-76
2023/10/19 14:51:49;;;;;;;4.88;4.47;;;;;;;;;;5102083;27;20585;-77
2023/10/19 14:54:18;;;;;;;4.20;3.90;;;;;;;;;;5092104;28;20052;-75
2023/10/19 14:56:46;;;;;;;4.60;4.20;;;;;;;;;;5094282;28;20044;-74
2023/10/19 14:59:15;;;;;;;4.35;4.05;;;;;;;;;;5098239;27;20484;-77
2023/10/19 15:01:44;;;;;;;4.30;3.90;;;;;;;;;;5094973;27;20534;-78